Cross Lake, Canada
Current Conditions -  °F | °C
As of 10:59 AM on Wednesday 22 Oct 2014 (Local Time) from CYNE Reporting Station
Clear Clear  
Wind Chill: 52°   Ceiling: Unl
Heat Index: 52°   Visibility: 9mi
Dew Point: 43°   Wind: 18mph
Humidity: 71%   Direction: 180°S
Pressure: 29.62"   Gusts: 26mph
Location:  54.62°N, 97.78°W
Report Text: CYNE 221559Z AUTO 18016G23KT 9SM CLR 11/06 A2962 RMK SLP038
Loading
Personal Weather Stations






























Interactive Weather Map
Tropical Storm Tracking
New forecast layout! Learn more

10-Day Weather Forecast

Advertisements
Track Severe Weather on mobile